sensor_id;sensor_type;location;lat;lon;timestamp;pressure;altitude;pressure_sealevel;temperature;humidity
24752;BME280;27246;52.376;4.628;2023-02-10T00:00:51;103386.44;;;3.71;87.88
24752;BME280;27246;52.376;4.628;2023-02-10T00:05:54;103390.13;;;3.70;87.74
24752;BME280;27246;52.376;4.628;2023-02-10T00:10:57;103382.81;;;3.70;87.42
24752;BME280;27246;52.376;4.628;2023-02-10T00:16:01;103384.75;;;3.68;87.17
24752;BME280;27246;52.376;4.628;2023-02-10T00:21:11;103390.38;;;3.65;87.20
24752;BME280;27246;52.376;4.628;2023-02-10T00:26:13;103377.63;;;3.66;87.14
24752;BME280;27246;52.376;4.628;2023-02-10T00:31:17;103383.31;;;3.61;87.32
24752;BME280;27246;52.376;4.628;2023-02-10T00:36:22;103402.31;;;3.63;87.34
24752;BME280;27246;52.376;4.628;2023-02-10T00:41:26;103405.53;;;3.52;86.76
24752;BME280;27246;52.376;4.628;2023-02-10T00:46:27;103397.44;;;3.50;87.10
24752;BME280;27246;52.376;4.628;2023-02-10T00:51:29;103391.63;;;3.58;88.19
24752;BME280;27246;52.376;4.628;2023-02-10T00:56:31;103401.88;;;3.53;87.49
24752;BME280;27246;52.376;4.628;2023-02-10T01:01:32;103406.28;;;3.55;87.62
24752;BME280;27246;52.376;4.628;2023-02-10T01:06:34;103401.88;;;3.53;87.56
24752;BME280;27246;52.376;4.628;2023-02-10T01:11:37;103392.41;;;3.60;87.40
24752;BME280;27246;52.376;4.628;2023-02-10T01:16:39;103398.84;;;3.59;87.72
24752;BME280;27246;52.376;4.628;2023-02-10T01:21:42;103410.38;;;3.64;88.54
24752;BME280;27246;52.376;4.628;2023-02-10T01:26:45;103425.81;;;3.65;88.25
24752;BME280;27246;52.376;4.628;2023-02-10T01:31:46;103422.19;;;3.65;88.76
24752;BME280;27246;52.376;4.628;2023-02-10T01:36:48;103418.66;;;3.63;88.37
24752;BME280;27246;52.376;4.628;2023-02-10T01:41:51;103420.34;;;3.65;89.04
24752;BME280;27246;52.376;4.628;2023-02-10T01:46:53;103421.22;;;3.66;88.67
24752;BME280;27246;52.376;4.628;2023-02-10T01:57:03;103427.66;;;3.82;89.35
24752;BME280;27246;52.376;4.628;2023-02-10T02:02:05;103410.38;;;3.64;88.97
24752;BME280;27246;52.376;4.628;2023-02-10T02:07:10;103415.41;;;3.73;89.25
24752;BME280;27246;52.376;4.628;2023-02-10T02:12:53;103417.63;;;3.65;88.86
24752;BME280;27246;52.376;4.628;2023-02-10T02:17:59;103411.44;;;3.61;87.96
24752;BME280;27246;52.376;4.628;2023-02-10T02:23:13;103416.16;;;3.58;87.65
24752;BME280;27246;52.376;4.628;2023-02-10T02:28:24;103421.91;;;3.52;87.75
24752;BME280;27246;52.376;4.628;2023-02-10T02:33:39;103432.66;;;3.55;88.31
24752;BME280;27246;52.376;4.628;2023-02-10T02:38:42;103436.03;;;3.60;87.59
24752;BME280;27246;52.376;4.628;2023-02-10T02:43:43;103429.56;;;3.44;86.88
24752;BME280;27246;52.376;4.628;2023-02-10T02:48:56;103444.00;;;3.27;86.74
24752;BME280;27246;52.376;4.628;2023-02-10T02:59:36;103433.47;;;3.38;88.34
24752;BME280;27246;52.376;4.628;2023-02-10T03:04:41;103437.38;;;3.32;87.54
24752;BME280;27246;52.376;4.628;2023-02-10T03:09:43;103446.78;;;3.25;86.88
24752;BME280;27246;52.376;4.628;2023-02-10T03:14:45;103449.59;;;3.24;87.20
24752;BME280;27246;52.376;4.628;2023-02-10T03:19:46;103447.31;;;3.33;88.32
24752;BME280;27246;52.376;4.628;2023-02-10T03:24:48;103445.13;;;3.23;87.19
24752;BME280;27246;52.376;4.628;2023-02-10T03:29:50;103446.78;;;3.25;87.14
24752;BME280;27246;52.376;4.628;2023-02-10T03:34:53;103446.78;;;3.25;88.88
24752;BME280;27246;52.376;4.628;2023-02-10T03:39:55;103445.00;;;3.24;88.90
24752;BME280;27246;52.376;4.628;2023-02-10T03:44:56;103441.78;;;3.16;87.73
24752;BME280;27246;52.376;4.628;2023-02-10T03:49:58;103441.06;;;3.12;86.83
24752;BME280;27246;52.376;4.628;2023-02-10T03:55:00;103445.31;;;3.18;87.09
24752;BME280;27246;52.376;4.628;2023-02-10T04:00:02;103449.34;;;3.09;89.97
24752;BME280;27246;52.376;4.628;2023-02-10T04:05:13;103446.50;;;3.12;90.87
24752;BME280;27246;52.376;4.628;2023-02-10T04:10:14;103446.13;;;3.20;90.61
24752;BME280;27246;52.376;4.628;2023-02-10T04:15:16;103444.06;;;3.25;90.40
24752;BME280;27246;52.376;4.628;2023-02-10T04:20:18;103427.03;;;3.01;91.52
24752;BME280;27246;52.376;4.628;2023-02-10T04:25:20;103439.63;;;3.04;92.40
24752;BME280;27246;52.376;4.628;2023-02-10T04:30:23;103437.53;;;3.10;92.28
24752;BME280;27246;52.376;4.628;2023-02-10T04:35:25;103436.91;;;3.04;92.71
24752;BME280;27246;52.376;4.628;2023-02-10T04:40:26;103442.38;;;2.83;93.91
24752;BME280;27246;52.376;4.628;2023-02-10T04:45:28;103445.88;;;3.06;94.80
24752;BME280;27246;52.376;4.628;2023-02-10T04:50:30;103451.03;;;3.12;94.01
24752;BME280;27246;52.376;4.628;2023-02-10T04:55:32;103430.81;;;3.17;93.71
24752;BME280;27246;52.376;4.628;2023-02-10T05:00:34;103427.97;;;3.20;93.19
24752;BME280;27246;52.376;4.628;2023-02-10T05:05:36;103428.53;;;3.08;93.37
24752;BME280;27246;52.376;4.628;2023-02-10T05:10:38;103440.44;;;3.06;93.55
24752;BME280;27246;52.376;4.628;2023-02-10T05:15:40;103424.63;;;3.14;93.85
24752;BME280;27246;52.376;4.628;2023-02-10T05:20:41;103414.53;;;2.97;94.73
24752;BME280;27246;52.376;4.628;2023-02-10T05:25:43;103419.69;;;3.03;95.02
24752;BME280;27246;52.376;4.628;2023-02-10T05:30:46;103428.16;;;3.16;94.08
24752;BME280;27246;52.376;4.628;2023-02-10T05:35:48;103418.38;;;3.12;92.94
24752;BME280;27246;52.376;4.628;2023-02-10T05:40:50;103427.31;;;2.76;94.54
24752;BME280;27246;52.376;4.628;2023-02-10T05:45:51;103427.31;;;2.76;94.76
24752;BME280;27246;52.376;4.628;2023-02-10T05:50:53;103426.22;;;2.80;95.58
24752;BME280;27246;52.376;4.628;2023-02-10T05:55:55;103432.41;;;2.63;95.85
24752;BME280;27246;52.376;4.628;2023-02-10T06:00:56;103428.19;;;2.76;96.73
24752;BME280;27246;52.376;4.628;2023-02-10T06:05:58;103430.00;;;2.96;95.76
24752;BME280;27246;52.376;4.628;2023-02-10T06:11:00;103446.91;;;2.84;95.49
24752;BME280;27246;52.376;4.628;2023-02-10T06:16:02;103447.91;;;2.81;95.91
24752;BME280;27246;52.376;4.628;2023-02-10T06:21:04;103463.69;;;2.94;95.47
24752;BME280;27246;52.376;4.628;2023-02-10T06:26:05;103459.59;;;3.04;94.85
24752;BME280;27246;52.376;4.628;2023-02-10T06:31:07;103453.25;;;3.04;94.17
24752;BME280;27246;52.376;4.628;2023-02-10T06:36:09;103455.44;;;2.95;94.73
24752;BME280;27246;52.376;4.628;2023-02-10T06:41:11;103451.53;;;2.82;95.75
24752;BME280;27246;52.376;4.628;2023-02-10T06:46:12;103441.47;;;3.03;95.75
24752;BME280;27246;52.376;4.628;2023-02-10T06:51:17;103437.47;;;2.91;95.56
24752;BME280;27246;52.376;4.628;2023-02-10T06:56:19;103445.66;;;2.71;97.13
24752;BME280;27246;52.376;4.628;2023-02-10T07:01:20;103466.69;;;2.67;98.16
24752;BME280;27246;52.376;4.628;2023-02-10T07:06:22;103471.59;;;2.79;98.46
24752;BME280;27246;52.376;4.628;2023-02-10T07:11:24;103468.94;;;2.78;98.28
24752;BME280;27246;52.376;4.628;2023-02-10T07:16:26;103471.69;;;2.78;99.07
24752;BME280;27246;52.376;4.628;2023-02-10T07:21:29;103469.22;;;2.72;98.68
24752;BME280;27246;52.376;4.628;2023-02-10T07:26:31;103474.84;;;2.67;99.12
24752;BME280;27246;52.376;4.628;2023-02-10T07:31:32;103475.28;;;2.78;99.79
24752;BME280;27246;52.376;4.628;2023-02-10T07:36:38;103470.03;;;2.94;99.13
24752;BME280;27246;52.376;4.628;2023-02-10T07:41:40;103485.19;;;3.00;98.50
24752;BME280;27246;52.376;4.628;2023-02-10T07:46:42;103484.56;;;2.93;98.75
24752;BME280;27246;52.376;4.628;2023-02-10T07:51:44;103487.19;;;2.76;99.03
24752;BME280;27246;52.376;4.628;2023-02-10T07:56:46;103497.09;;;2.77;100.00
24752;BME280;27246;52.376;4.628;2023-02-10T08:01:48;103482.63;;;2.76;100.00
24752;BME280;27246;52.376;4.628;2023-02-10T08:06:50;103487.72;;;2.84;100.00
24752;BME280;27246;52.376;4.628;2023-02-10T08:11:54;103494.25;;;2.80;100.00
24752;BME280;27246;52.376;4.628;2023-02-10T08:16:56;103501.41;;;2.83;100.00
24752;BME280;27246;52.376;4.628;2023-02-10T08:21:58;103506.09;;;2.79;100.00
24752;BME280;27246;52.376;4.628;2023-02-10T08:27:00;103503.53;;;2.76;100.00
24752;BME280;27246;52.376;4.628;2023-02-10T08:32:02;103489.69;;;2.80;100.00
24752;BME280;27246;52.376;4.628;2023-02-10T08:37:04;103502.00;;;2.89;100.00
24752;BME280;27246;52.376;4.628;2023-02-10T08:42:06;103500.50;;;3.03;100.00
24752;BME280;27246;52.376;4.628;2023-02-10T08:47:08;103503.75;;;3.11;100.00
24752;BME280;27246;52.376;4.628;2023-02-10T08:52:12;103502.78;;;3.32;100.00
24752;BME280;27246;52.376;4.628;2023-02-10T08:57:14;103502.03;;;3.48;100.00
24752;BME280;27246;52.376;4.628;2023-02-10T09:02:16;103508.41;;;3.85;100.00
24752;BME280;27246;52.376;4.628;2023-02-10T09:07:17;103497.50;;;3.85;100.00
24752;BME280;27246;52.376;4.628;2023-02-10T09:12:19;103503.84;;;4.04;100.00
24752;BME280;27246;52.376;4.628;2023-02-10T09:17:22;103509.78;;;4.12;100.00
24752;BME280;27246;52.376;4.628;2023-02-10T09:22:24;103506.63;;;4.39;100.00
24752;BME280;27246;52.376;4.628;2023-02-10T09:27:26;103500.78;;;4.29;100.00
24752;BME280;27246;52.376;4.628;2023-02-10T09:32:27;103495.69;;;4.39;100.00
24752;BME280;27246;52.376;4.628;2023-02-10T09:37:30;103505.66;;;4.57;100.00
24752;BME280;27246;52.376;4.628;2023-02-10T09:48:17;103512.59;;;4.99;98.88
24752;BME280;27246;52.376;4.628;2023-02-10T09:53:25;103496.91;;;5.20;98.81
24752;BME280;27246;52.376;4.628;2023-02-10T10:30:18;103497.22;;;5.95;93.03
24752;BME280;27246;52.376;4.628;2023-02-10T10:35:34;103496.78;;;6.03;92.93
24752;BME280;27246;52.376;4.628;2023-02-10T10:40:37;103511.88;;;6.10;91.58
24752;BME280;27246;52.376;4.628;2023-02-10T10:45:42;103519.09;;;6.27;90.51
24752;BME280;27246;52.376;4.628;2023-02-10T10:50:46;103501.59;;;6.30;87.77
24752;BME280;27246;52.376;4.628;2023-02-10T10:55:50;103507.78;;;6.33;86.92
24752;BME280;27246;52.376;4.628;2023-02-10T11:00:54;103499.28;;;6.38;86.44
24752;BME280;27246;52.376;4.628;2023-02-10T11:11:02;103479.34;;;6.36;84.29
24752;BME280;27246;52.376;4.628;2023-02-10T11:16:09;103472.13;;;6.49;83.69
24752;BME280;27246;52.376;4.628;2023-02-10T11:21:12;103459.44;;;6.48;83.55
24752;BME280;27246;52.376;4.628;2023-02-10T11:26:24;103461.16;;;6.49;80.79
24752;BME280;27246;52.376;4.628;2023-02-10T11:31:33;103460.63;;;6.58;79.76
24752;BME280;27246;52.376;4.628;2023-02-10T11:36:40;103446.06;;;6.72;77.21
24752;BME280;27246;52.376;4.628;2023-02-10T11:41:42;103454.50;;;6.84;75.56
24752;BME280;27246;52.376;4.628;2023-02-10T11:46:54;103465.19;;;6.88;73.63
24752;BME280;27246;52.376;4.628;2023-02-10T11:51:56;103461.66;;;6.86;72.71
24752;BME280;27246;52.376;4.628;2023-02-10T11:57:15;103464.97;;;6.91;73.24
24752;BME280;27246;52.376;4.628;2023-02-10T12:08:09;103497.69;;;7.23;72.53
24752;BME280;27246;52.376;4.628;2023-02-10T12:18:53;103479.00;;;7.15;72.92
24752;BME280;27246;52.376;4.628;2023-02-10T12:24:14;103473.31;;;6.90;75.05
24752;BME280;27246;52.376;4.628;2023-02-10T12:40:15;103437.56;;;6.91;78.99
24752;BME280;27246;52.376;4.628;2023-02-10T12:45:39;103431.03;;;7.08;79.11
24752;BME280;27246;52.376;4.628;2023-02-10T12:50:54;103418.00;;;7.12;78.65
24752;BME280;27246;52.376;4.628;2023-02-10T12:56:54;103407.44;;;6.91;79.61
24752;BME280;27246;52.376;4.628;2023-02-10T13:06:44;103382.88;;;7.04;80.70
24752;BME280;27246;52.376;4.628;2023-02-10T13:17:04;103385.09;;;7.12;79.45
24752;BME280;27246;52.376;4.628;2023-02-10T13:22:16;103390.78;;;7.23;80.35
24752;BME280;27246;52.376;4.628;2023-02-10T13:27:38;103393.31;;;7.12;79.97
24752;BME280;27246;52.376;4.628;2023-02-10T13:38:19;103376.31;;;7.07;82.09
24752;BME280;27246;52.376;4.628;2023-02-10T13:43:30;103370.53;;;6.97;82.93
24752;BME280;27246;52.376;4.628;2023-02-10T13:48:35;103352.53;;;6.93;84.57
24752;BME280;27246;52.376;4.628;2023-02-10T13:53:40;103348.63;;;6.97;85.05
24752;BME280;27246;52.376;4.628;2023-02-10T14:03:55;103328.72;;;7.08;83.88
24752;BME280;27246;52.376;4.628;2023-02-10T14:09:03;103333.28;;;6.94;84.69
24752;BME280;27246;52.376;4.628;2023-02-10T14:19:37;103348.94;;;6.92;85.57
24752;BME280;27246;52.376;4.628;2023-02-10T14:24:43;103352.84;;;6.74;85.90
24752;BME280;27246;52.376;4.628;2023-02-10T14:30:13;103349.22;;;6.73;86.68
24752;BME280;27246;52.376;4.628;2023-02-10T14:35:22;103348.16;;;6.61;87.58
24752;BME280;27246;52.376;4.628;2023-02-10T14:40:31;103340.34;;;6.55;87.97
24752;BME280;27246;52.376;4.628;2023-02-10T14:45:33;103331.91;;;6.58;87.45
24752;BME280;27246;52.376;4.628;2023-02-10T14:50:40;103338.84;;;6.50;87.74
24752;BME280;27246;52.376;4.628;2023-02-10T14:55:44;103336.22;;;6.48;87.62
24752;BME280;27246;52.376;4.628;2023-02-10T15:01:10;103327.50;;;6.41;87.90
24752;BME280;27246;52.376;4.628;2023-02-10T15:06:18;103323.38;;;6.34;87.53
24752;BME280;27246;52.376;4.628;2023-02-10T15:11:32;103329.25;;;6.28;87.38
24752;BME280;27246;52.376;4.628;2023-02-10T15:16:57;103330.31;;;6.26;87.66
24752;BME280;27246;52.376;4.628;2023-02-10T15:22:00;103328.66;;;6.23;87.89
24752;BME280;27246;52.376;4.628;2023-02-10T15:27:28;103318.97;;;6.17;89.36
24752;BME280;27246;52.376;4.628;2023-02-10T15:32:29;103313.59;;;6.16;90.84
24752;BME280;27246;52.376;4.628;2023-02-10T15:37:31;103312.78;;;6.14;91.91
24752;BME280;27246;52.376;4.628;2023-02-10T15:42:33;103308.41;;;6.11;92.91
24752;BME280;27246;52.376;4.628;2023-02-10T15:52:46;103306.31;;;6.00;94.34
24752;BME280;27246;52.376;4.628;2023-02-10T15:57:48;103292.03;;;5.95;95.23
24752;BME280;27246;52.376;4.628;2023-02-10T16:02:50;103304.16;;;5.91;95.79
24752;BME280;27246;52.376;4.628;2023-02-10T16:07:52;103303.16;;;5.92;95.68
24752;BME280;27246;52.376;4.628;2023-02-10T16:12:54;103300.25;;;5.95;95.73
24752;BME280;27246;52.376;4.628;2023-02-10T16:17:58;103304.84;;;5.95;95.91
24752;BME280;27246;52.376;4.628;2023-02-10T16:23:01;103294.25;;;5.89;96.03
24752;BME280;27246;52.376;4.628;2023-02-10T16:28:09;103303.44;;;5.88;95.75
24752;BME280;27246;52.376;4.628;2023-02-10T16:33:10;103307.94;;;5.89;96.11
24752;BME280;27246;52.376;4.628;2023-02-10T16:38:12;103314.88;;;5.94;95.25
24752;BME280;27246;52.376;4.628;2023-02-10T16:43:21;103307.84;;;5.90;95.74
24752;BME280;27246;52.376;4.628;2023-02-10T16:48:23;103288.63;;;5.92;95.95
24752;BME280;27246;52.376;4.628;2023-02-10T16:53:24;103314.56;;;5.85;96.39
24752;BME280;27246;52.376;4.628;2023-02-10T16:58:26;103312.63;;;5.87;97.63
24752;BME280;27246;52.376;4.628;2023-02-10T17:03:28;103306.09;;;5.89;97.96
24752;BME280;27246;52.376;4.628;2023-02-10T17:08:30;103299.50;;;5.77;98.71
24752;BME280;27246;52.376;4.628;2023-02-10T17:13:32;103298.53;;;5.78;99.16
24752;BME280;27246;52.376;4.628;2023-02-10T17:18:33;103290.44;;;5.77;99.46
24752;BME280;27246;52.376;4.628;2023-02-10T17:23:35;103287.59;;;5.78;98.91
24752;BME280;27246;52.376;4.628;2023-02-10T17:28:37;103277.72;;;5.76;99.28
24752;BME280;27246;52.376;4.628;2023-02-10T17:33:39;103285.84;;;5.77;99.71
24752;BME280;27246;52.376;4.628;2023-02-10T17:38:41;103296.56;;;5.80;99.12
24752;BME280;27246;52.376;4.628;2023-02-10T17:43:51;103298.69;;;5.91;98.94
24752;BME280;27246;52.376;4.628;2023-02-10T17:48:53;103279.78;;;5.87;98.65
24752;BME280;27246;52.376;4.628;2023-02-10T17:53:55;103287.81;;;5.90;98.55
24752;BME280;27246;52.376;4.628;2023-02-10T17:58:57;103282.19;;;5.93;98.81
24752;BME280;27246;52.376;4.628;2023-02-10T18:03:59;103270.44;;;5.91;99.05
24752;BME280;27246;52.376;4.628;2023-02-10T18:09:02;103270.16;;;5.95;99.04
24752;BME280;27246;52.376;4.628;2023-02-10T18:14:04;103281.28;;;5.92;99.41
24752;BME280;27246;52.376;4.628;2023-02-10T18:19:05;103272.19;;;5.92;100.00
24752;BME280;27246;52.376;4.628;2023-02-10T18:24:07;103269.47;;;5.92;100.00
24752;BME280;27246;52.376;4.628;2023-02-10T18:29:09;103273.97;;;5.93;100.00
24752;BME280;27246;52.376;4.628;2023-02-10T18:34:11;103291.84;;;5.98;100.00
24752;BME280;27246;52.376;4.628;2023-02-10T18:39:12;103292.50;;;5.88;100.00
24752;BME280;27246;52.376;4.628;2023-02-10T18:44:14;103293.38;;;5.88;100.00
24752;BME280;27246;52.376;4.628;2023-02-10T18:49:16;103284.31;;;5.88;100.00
24752;BME280;27246;52.376;4.628;2023-02-10T18:54:19;103293.00;;;5.94;100.00
24752;BME280;27246;52.376;4.628;2023-02-10T18:59:21;103290.38;;;5.93;100.00
24752;BME280;27246;52.376;4.628;2023-02-10T19:04:25;103275.31;;;5.86;100.00
24752;BME280;27246;52.376;4.628;2023-02-10T19:09:26;103280.88;;;5.84;100.00
24752;BME280;27246;52.376;4.628;2023-02-10T19:14:45;103283.31;;;5.89;100.00
24752;BME280;27246;52.376;4.628;2023-02-10T19:19:47;103268.50;;;5.93;100.00
24752;BME280;27246;52.376;4.628;2023-02-10T19:24:48;103254.22;;;5.88;100.00
24752;BME280;27246;52.376;4.628;2023-02-10T19:29:50;103261.34;;;5.90;100.00
24752;BME280;27246;52.376;4.628;2023-02-10T19:34:52;103254.03;;;5.91;100.00
24752;BME280;27246;52.376;4.628;2023-02-10T19:39:54;103248.38;;;5.94;100.00
24752;BME280;27246;52.376;4.628;2023-02-10T19:44:59;103263.91;;;5.93;100.00
24752;BME280;27246;52.376;4.628;2023-02-10T19:50:03;103262.34;;;5.89;100.00
24752;BME280;27246;52.376;4.628;2023-02-10T19:55:04;103260.97;;;5.96;100.00
24752;BME280;27246;52.376;4.628;2023-02-10T20:00:07;103231.34;;;5.89;100.00
24752;BME280;27246;52.376;4.628;2023-02-10T20:05:11;103231.94;;;5.94;100.00
24752;BME280;27246;52.376;4.628;2023-02-10T20:10:13;103240.94;;;5.96;100.00
24752;BME280;27246;52.376;4.628;2023-02-10T20:15:15;103243.88;;;5.93;100.00
24752;BME280;27246;52.376;4.628;2023-02-10T20:20:20;103245.72;;;5.92;100.00
24752;BME280;27246;52.376;4.628;2023-02-10T20:25:22;103262.03;;;5.94;100.00
24752;BME280;27246;52.376;4.628;2023-02-10T20:30:24;103270.16;;;5.95;100.00
24752;BME280;27246;52.376;4.628;2023-02-10T20:35:26;103279.94;;;5.99;100.00
24752;BME280;27246;52.376;4.628;2023-02-10T20:40:27;103273.59;;;5.99;100.00
24752;BME280;27246;52.376;4.628;2023-02-10T20:45:29;103278.69;;;6.05;100.00
24752;BME280;27246;52.376;4.628;2023-02-10T20:50:31;103287.69;;;6.07;100.00
24752;BME280;27246;52.376;4.628;2023-02-10T20:55:33;103293.25;;;6.06;100.00
24752;BME280;27246;52.376;4.628;2023-02-10T21:00:43;103289.34;;;6.10;100.00
24752;BME280;27246;52.376;4.628;2023-02-10T21:05:45;103275.94;;;6.05;100.00
24752;BME280;27246;52.376;4.628;2023-02-10T21:10:48;103279.09;;;6.13;100.00
24752;BME280;27246;52.376;4.628;2023-02-10T21:15:53;103272.13;;;6.08;100.00
24752;BME280;27246;52.376;4.628;2023-02-10T21:21:00;103284.94;;;6.07;100.00
24752;BME280;27246;52.376;4.628;2023-02-10T21:26:03;103282.88;;;6.11;100.00
24752;BME280;27246;52.376;4.628;2023-02-10T21:31:17;103282.69;;;6.14;100.00
24752;BME280;27246;52.376;4.628;2023-02-10T21:36:22;103288.75;;;6.19;100.00
24752;BME280;27246;52.376;4.628;2023-02-10T21:41:27;103280.84;;;6.14;100.00
24752;BME280;27246;52.376;4.628;2023-02-10T21:46:52;103270.56;;;6.18;100.00
24752;BME280;27246;52.376;4.628;2023-02-10T21:51:55;103285.13;;;6.18;99.94
24752;BME280;27246;52.376;4.628;2023-02-10T21:56:56;103274.97;;;6.20;99.36
24752;BME280;27246;52.376;4.628;2023-02-10T22:02:02;103282.78;;;6.27;98.44
24752;BME280;27246;52.376;4.628;2023-02-10T22:07:07;103286.53;;;6.26;97.63
24752;BME280;27246;52.376;4.628;2023-02-10T22:12:09;103275.19;;;6.32;96.87
24752;BME280;27246;52.376;4.628;2023-02-10T22:17:11;103270.09;;;6.26;95.64
24752;BME280;27246;52.376;4.628;2023-02-10T22:22:12;103279.78;;;6.31;95.05
24752;BME280;27246;52.376;4.628;2023-02-10T22:27:14;103288.56;;;6.36;94.44
24752;BME280;27246;52.376;4.628;2023-02-10T22:32:16;103283.78;;;6.40;94.25
24752;BME280;27246;52.376;4.628;2023-02-10T22:37:17;103276.53;;;6.39;94.52
24752;BME280;27246;52.376;4.628;2023-02-10T22:42:19;103262.66;;;6.42;94.82
24752;BME280;27246;52.376;4.628;2023-02-10T22:47:21;103253.78;;;6.38;95.10
24752;BME280;27246;52.376;4.628;2023-02-10T22:52:23;103273.94;;;6.37;95.44
24752;BME280;27246;52.376;4.628;2023-02-10T22:57:25;103279.09;;;6.42;95.89
24752;BME280;27246;52.376;4.628;2023-02-10T23:02:27;103281.22;;;6.37;96.25
24752;BME280;27246;52.376;4.628;2023-02-10T23:07:30;103274.81;;;6.38;96.59
24752;BME280;27246;52.376;4.628;2023-02-10T23:12:31;103272.25;;;6.35;97.29
24752;BME280;27246;52.376;4.628;2023-02-10T23:17:33;103273.81;;;6.39;97.66
24752;BME280;27246;52.376;4.628;2023-02-10T23:22:35;103263.94;;;6.36;98.20
24752;BME280;27246;52.376;4.628;2023-02-10T23:27:37;103253.28;;;6.32;98.87
24752;BME280;27246;52.376;4.628;2023-02-10T23:32:38;103251.34;;;6.34;99.56
24752;BME280;27246;52.376;4.628;2023-02-10T23:37:40;103246.56;;;6.37;99.81
24752;BME280;27246;52.376;4.628;2023-02-10T23:42:42;103223.19;;;6.32;100.00
24752;BME280;27246;52.376;4.628;2023-02-10T23:47:44;103218.56;;;6.32;100.00
24752;BME280;27246;52.376;4.628;2023-02-10T23:52:46;103224.84;;;6.34;100.00
24752;BME280;27246;52.376;4.628;2023-02-10T23:57:48;103232.56;;;6.28;100.00
